sensor_id;sensor_type;location;lat;lon;timestamp;temperature;humidity
2633;DHT22;1326;48.692;16.870;2023-08-30T00:01:35;15.80;99.90
2633;DHT22;1326;48.692;16.870;2023-08-30T00:04:02;15.80;99.90
2633;DHT22;1326;48.692;16.870;2023-08-30T00:06:31;15.80;99.90
2633;DHT22;1326;48.692;16.870;2023-08-30T00:08:59;15.80;99.90
2633;DHT22;1326;48.692;16.870;2023-08-30T00:11:26;15.80;99.90
2633;DHT22;1326;48.692;16.870;2023-08-30T00:14:03;15.80;99.90
2633;DHT22;1326;48.692;16.870;2023-08-30T00:16:33;15.80;99.90
2633;DHT22;1326;48.692;16.870;2023-08-30T00:19:01;15.80;99.90
2633;DHT22;1326;48.692;16.870;2023-08-30T00:21:28;15.80;99.90
2633;DHT22;1326;48.692;16.870;2023-08-30T00:23:56;15.80;99.90
2633;DHT22;1326;48.692;16.870;2023-08-30T00:26:23;15.80;99.90
2633;DHT22;1326;48.692;16.870;2023-08-30T00:28:51;15.90;99.90
2633;DHT22;1326;48.692;16.870;2023-08-30T00:31:18;15.90;99.90
2633;DHT22;1326;48.692;16.870;2023-08-30T00:33:48;15.90;99.90
2633;DHT22;1326;48.692;16.870;2023-08-30T00:36:15;15.90;99.90
2633;DHT22;1326;48.692;16.870;2023-08-30T00:38:44;15.90;99.90
2633;DHT22;1326;48.692;16.870;2023-08-30T00:41:12;15.90;99.90
2633;DHT22;1326;48.692;16.870;2023-08-30T00:43:40;15.90;99.90
2633;DHT22;1326;48.692;16.870;2023-08-30T00:46:07;15.90;99.90
2633;DHT22;1326;48.692;16.870;2023-08-30T00:48:35;15.90;99.90
2633;DHT22;1326;48.692;16.870;2023-08-30T00:51:03;15.90;99.90
2633;DHT22;1326;48.692;16.870;2023-08-30T00:53:30;15.90;99.90
2633;DHT22;1326;48.692;16.870;2023-08-30T00:55:58;15.90;99.90
2633;DHT22;1326;48.692;16.870;2023-08-30T00:58:26;15.90;99.90
2633;DHT22;1326;48.692;16.870;2023-08-30T01:00:53;15.90;99.90
2633;DHT22;1326;48.692;16.870;2023-08-30T01:03:21;15.90;99.90
2633;DHT22;1326;48.692;16.870;2023-08-30T01:05:49;15.90;99.90
2633;DHT22;1326;48.692;16.870;2023-08-30T01:08:17;15.90;99.90
2633;DHT22;1326;48.692;16.870;2023-08-30T01:13:44;15.90;99.90
2633;DHT22;1326;48.692;16.870;2023-08-30T01:16:12;15.90;99.90
2633;DHT22;1326;48.692;16.870;2023-08-30T01:18:40;15.90;99.90
2633;DHT22;1326;48.692;16.870;2023-08-30T01:21:11;15.90;99.90
2633;DHT22;1326;48.692;16.870;2023-08-30T01:23:52;15.90;99.90
2633;DHT22;1326;48.692;16.870;2023-08-30T01:26:44;15.90;99.90
2633;DHT22;1326;48.692;16.870;2023-08-30T01:29:12;15.80;99.90
2633;DHT22;1326;48.692;16.870;2023-08-30T01:31:42;15.80;99.90
2633;DHT22;1326;48.692;16.870;2023-08-30T01:34:11;15.80;99.90
2633;DHT22;1326;48.692;16.870;2023-08-30T01:36:41;15.80;99.90
2633;DHT22;1326;48.692;16.870;2023-08-30T01:39:11;15.80;99.90
2633;DHT22;1326;48.692;16.870;2023-08-30T01:41:40;15.80;99.90
2633;DHT22;1326;48.692;16.870;2023-08-30T01:44:08;15.80;99.90
2633;DHT22;1326;48.692;16.870;2023-08-30T01:46:37;15.80;99.90
2633;DHT22;1326;48.692;16.870;2023-08-30T01:49:04;15.80;99.90
2633;DHT22;1326;48.692;16.870;2023-08-30T01:51:34;15.80;99.90
2633;DHT22;1326;48.692;16.870;2023-08-30T01:54:02;15.80;99.90
2633;DHT22;1326;48.692;16.870;2023-08-30T01:56:30;15.80;99.90
2633;DHT22;1326;48.692;16.870;2023-08-30T01:58:58;15.80;99.90
2633;DHT22;1326;48.692;16.870;2023-08-30T02:01:26;15.80;99.90
2633;DHT22;1326;48.692;16.870;2023-08-30T02:03:53;15.80;99.90
2633;DHT22;1326;48.692;16.870;2023-08-30T02:06:41;15.80;99.90
2633;DHT22;1326;48.692;16.870;2023-08-30T02:09:09;15.80;99.90
2633;DHT22;1326;48.692;16.870;2023-08-30T02:11:35;15.80;99.90
2633;DHT22;1326;48.692;16.870;2023-08-30T02:14:05;15.80;99.90
2633;DHT22;1326;48.692;16.870;2023-08-30T02:16:34;15.80;99.90
2633;DHT22;1326;48.692;16.870;2023-08-30T02:19:02;15.80;99.90
2633;DHT22;1326;48.692;16.870;2023-08-30T02:21:30;15.80;99.90
2633;DHT22;1326;48.692;16.870;2023-08-30T02:23:58;15.80;99.90
2633;DHT22;1326;48.692;16.870;2023-08-30T02:26:25;15.80;99.90
2633;DHT22;1326;48.692;16.870;2023-08-30T02:28:53;15.80;99.90
2633;DHT22;1326;48.692;16.870;2023-08-30T02:31:20;15.80;99.90
2633;DHT22;1326;48.692;16.870;2023-08-30T02:33:48;15.80;99.90
2633;DHT22;1326;48.692;16.870;2023-08-30T02:36:15;15.90;99.90
2633;DHT22;1326;48.692;16.870;2023-08-30T02:38:43;15.80;99.90
2633;DHT22;1326;48.692;16.870;2023-08-30T02:41:11;15.80;99.90
2633;DHT22;1326;48.692;16.870;2023-08-30T02:43:39;15.80;99.90
2633;DHT22;1326;48.692;16.870;2023-08-30T02:46:06;15.80;99.90
2633;DHT22;1326;48.692;16.870;2023-08-30T02:48:34;15.80;99.90
2633;DHT22;1326;48.692;16.870;2023-08-30T02:51:02;15.80;99.90
2633;DHT22;1326;48.692;16.870;2023-08-30T02:53:29;15.80;99.90
2633;DHT22;1326;48.692;16.870;2023-08-30T02:55:57;15.80;99.90
2633;DHT22;1326;48.692;16.870;2023-08-30T02:58:24;15.80;99.90
2633;DHT22;1326;48.692;16.870;2023-08-30T03:00:53;15.80;99.90
2633;DHT22;1326;48.692;16.870;2023-08-30T03:03:21;15.80;99.90
2633;DHT22;1326;48.692;16.870;2023-08-30T03:05:48;15.80;99.90
2633;DHT22;1326;48.692;16.870;2023-08-30T03:08:16;15.80;99.90
2633;DHT22;1326;48.692;16.870;2023-08-30T03:10:43;15.70;99.90
2633;DHT22;1326;48.692;16.870;2023-08-30T03:13:11;15.70;99.90
2633;DHT22;1326;48.692;16.870;2023-08-30T03:15:38;15.70;99.90
2633;DHT22;1326;48.692;16.870;2023-08-30T03:18:06;15.70;99.90
2633;DHT22;1326;48.692;16.870;2023-08-30T03:20:33;15.70;99.90
2633;DHT22;1326;48.692;16.870;2023-08-30T03:23:01;15.70;99.90
2633;DHT22;1326;48.692;16.870;2023-08-30T03:25:29;15.70;99.90
2633;DHT22;1326;48.692;16.870;2023-08-30T03:27:57;15.70;99.90
2633;DHT22;1326;48.692;16.870;2023-08-30T03:30:24;15.70;99.90
2633;DHT22;1326;48.692;16.870;2023-08-30T03:32:52;15.70;99.90
2633;DHT22;1326;48.692;16.870;2023-08-30T03:35:19;15.70;99.90
2633;DHT22;1326;48.692;16.870;2023-08-30T03:37:48;15.80;99.90
2633;DHT22;1326;48.692;16.870;2023-08-30T03:40:16;15.70;99.90
2633;DHT22;1326;48.692;16.870;2023-08-30T03:42:43;15.70;99.90
2633;DHT22;1326;48.692;16.870;2023-08-30T03:45:11;15.70;99.90
2633;DHT22;1326;48.692;16.870;2023-08-30T03:47:38;15.70;99.90
2633;DHT22;1326;48.692;16.870;2023-08-30T03:50:07;15.70;99.90
2633;DHT22;1326;48.692;16.870;2023-08-30T03:52:35;15.80;99.90
2633;DHT22;1326;48.692;16.870;2023-08-30T03:55:03;15.70;99.90
2633;DHT22;1326;48.692;16.870;2023-08-30T03:57:31;15.70;99.90
2633;DHT22;1326;48.692;16.870;2023-08-30T03:59:58;15.70;99.90
2633;DHT22;1326;48.692;16.870;2023-08-30T04:02:26;15.70;99.90
2633;DHT22;1326;48.692;16.870;2023-08-30T04:04:53;15.70;99.90
2633;DHT22;1326;48.692;16.870;2023-08-30T04:07:21;15.70;99.90
2633;DHT22;1326;48.692;16.870;2023-08-30T04:09:49;15.70;99.90
2633;DHT22;1326;48.692;16.870;2023-08-30T04:12:17;15.70;99.90
2633;DHT22;1326;48.692;16.870;2023-08-30T04:14:44;15.70;99.90
2633;DHT22;1326;48.692;16.870;2023-08-30T04:17:12;15.70;99.90
2633;DHT22;1326;48.692;16.870;2023-08-30T04:19:39;15.70;99.90
2633;DHT22;1326;48.692;16.870;2023-08-30T04:22:07;15.70;99.90
2633;DHT22;1326;48.692;16.870;2023-08-30T04:24:34;15.70;99.90
2633;DHT22;1326;48.692;16.870;2023-08-30T04:27:02;15.70;99.90
2633;DHT22;1326;48.692;16.870;2023-08-30T04:29:29;15.70;99.90
2633;DHT22;1326;48.692;16.870;2023-08-30T04:31:57;15.70;99.90
2633;DHT22;1326;48.692;16.870;2023-08-30T04:34:24;15.70;99.90
2633;DHT22;1326;48.692;16.870;2023-08-30T04:36:52;15.70;99.90
2633;DHT22;1326;48.692;16.870;2023-08-30T04:39:20;15.70;99.90
2633;DHT22;1326;48.692;16.870;2023-08-30T04:41:47;15.70;99.90
2633;DHT22;1326;48.692;16.870;2023-08-30T04:44:15;15.70;99.90
2633;DHT22;1326;48.692;16.870;2023-08-30T04:46:44;15.70;99.90
2633;DHT22;1326;48.692;16.870;2023-08-30T04:49:11;15.70;99.90
2633;DHT22;1326;48.692;16.870;2023-08-30T04:51:39;15.70;99.90
2633;DHT22;1326;48.692;16.870;2023-08-30T04:54:06;15.80;99.90
2633;DHT22;1326;48.692;16.870;2023-08-30T04:56:34;15.70;99.90
2633;DHT22;1326;48.692;16.870;2023-08-30T04:59:01;15.70;99.90
2633;DHT22;1326;48.692;16.870;2023-08-30T05:01:30;15.70;99.90
2633;DHT22;1326;48.692;16.870;2023-08-30T05:03:58;15.70;99.90
2633;DHT22;1326;48.692;16.870;2023-08-30T05:06:26;15.70;99.90
2633;DHT22;1326;48.692;16.870;2023-08-30T05:08:54;15.70;99.90
2633;DHT22;1326;48.692;16.870;2023-08-30T05:11:21;15.70;99.90
2633;DHT22;1326;48.692;16.870;2023-08-30T05:13:49;15.70;99.90
2633;DHT22;1326;48.692;16.870;2023-08-30T05:16:16;15.70;99.90
2633;DHT22;1326;48.692;16.870;2023-08-30T05:18:44;15.70;99.90
2633;DHT22;1326;48.692;16.870;2023-08-30T05:21:11;15.70;99.90
2633;DHT22;1326;48.692;16.870;2023-08-30T05:23:39;15.70;99.90
2633;DHT22;1326;48.692;16.870;2023-08-30T05:26:10;15.70;99.90
2633;DHT22;1326;48.692;16.870;2023-08-30T05:28:39;15.70;99.90
2633;DHT22;1326;48.692;16.870;2023-08-30T05:31:07;15.70;99.90
2633;DHT22;1326;48.692;16.870;2023-08-30T05:33:34;15.70;99.90
2633;DHT22;1326;48.692;16.870;2023-08-30T05:36:02;15.70;99.90
2633;DHT22;1326;48.692;16.870;2023-08-30T05:38:29;15.70;99.90
2633;DHT22;1326;48.692;16.870;2023-08-30T05:40:57;15.70;99.90
2633;DHT22;1326;48.692;16.870;2023-08-30T05:43:24;15.60;99.90
2633;DHT22;1326;48.692;16.870;2023-08-30T05:45:52;15.70;99.90
2633;DHT22;1326;48.692;16.870;2023-08-30T05:48:19;15.70;99.90
2633;DHT22;1326;48.692;16.870;2023-08-30T05:50:47;15.70;99.90
2633;DHT22;1326;48.692;16.870;2023-08-30T05:53:14;15.70;99.90
2633;DHT22;1326;48.692;16.870;2023-08-30T05:55:42;15.60;99.90
2633;DHT22;1326;48.692;16.870;2023-08-30T05:58:10;15.70;99.90
2633;DHT22;1326;48.692;16.870;2023-08-30T06:00:37;15.70;99.90
2633;DHT22;1326;48.692;16.870;2023-08-30T06:03:05;15.70;99.90
2633;DHT22;1326;48.692;16.870;2023-08-30T06:05:33;15.70;99.90
2633;DHT22;1326;48.692;16.870;2023-08-30T06:08:01;15.70;99.90
2633;DHT22;1326;48.692;16.870;2023-08-30T06:10:29;15.80;99.90
2633;DHT22;1326;48.692;16.870;2023-08-30T06:12:56;15.70;99.90
2633;DHT22;1326;48.692;16.870;2023-08-30T06:15:24;15.80;99.90
2633;DHT22;1326;48.692;16.870;2023-08-30T06:17:53;15.80;99.90
2633;DHT22;1326;48.692;16.870;2023-08-30T06:20:20;15.80;99.90
2633;DHT22;1326;48.692;16.870;2023-08-30T06:22:48;15.70;99.90
2633;DHT22;1326;48.692;16.870;2023-08-30T06:25:15;15.80;99.90
2633;DHT22;1326;48.692;16.870;2023-08-30T06:27:54;15.70;99.90
2633;DHT22;1326;48.692;16.870;2023-08-30T06:30:13;15.70;99.90
2633;DHT22;1326;48.692;16.870;2023-08-30T06:32:41;15.70;99.90
2633;DHT22;1326;48.692;16.870;2023-08-30T06:35:08;15.70;99.90
2633;DHT22;1326;48.692;16.870;2023-08-30T06:37:36;15.70;99.90
2633;DHT22;1326;48.692;16.870;2023-08-30T06:40:04;15.70;99.90
2633;DHT22;1326;48.692;16.870;2023-08-30T06:42:32;15.70;99.90
2633;DHT22;1326;48.692;16.870;2023-08-30T06:45:01;15.70;99.90
2633;DHT22;1326;48.692;16.870;2023-08-30T06:47:29;15.70;99.90
2633;DHT22;1326;48.692;16.870;2023-08-30T06:49:57;15.70;99.90
2633;DHT22;1326;48.692;16.870;2023-08-30T06:52:25;15.70;99.90
2633;DHT22;1326;48.692;16.870;2023-08-30T06:54:53;15.70;99.90
2633;DHT22;1326;48.692;16.870;2023-08-30T06:57:20;15.70;99.90
2633;DHT22;1326;48.692;16.870;2023-08-30T06:59:48;15.70;99.90
2633;DHT22;1326;48.692;16.870;2023-08-30T07:02:15;15.70;99.90
2633;DHT22;1326;48.692;16.870;2023-08-30T07:04:43;15.70;99.90
2633;DHT22;1326;48.692;16.870;2023-08-30T07:07:12;15.80;99.90
2633;DHT22;1326;48.692;16.870;2023-08-30T07:09:40;15.80;99.90
2633;DHT22;1326;48.692;16.870;2023-08-30T07:12:08;15.80;99.90
2633;DHT22;1326;48.692;16.870;2023-08-30T07:14:36;15.80;99.90
2633;DHT22;1326;48.692;16.870;2023-08-30T07:17:04;15.80;99.90
2633;DHT22;1326;48.692;16.870;2023-08-30T07:19:31;15.70;99.90
2633;DHT22;1326;48.692;16.870;2023-08-30T07:21:59;15.70;99.90
2633;DHT22;1326;48.692;16.870;2023-08-30T07:24:26;15.80;99.90
2633;DHT22;1326;48.692;16.870;2023-08-30T07:26:54;15.90;99.90
2633;DHT22;1326;48.692;16.870;2023-08-30T07:29:21;15.90;99.90
2633;DHT22;1326;48.692;16.870;2023-08-30T07:31:49;15.90;99.90
2633;DHT22;1326;48.692;16.870;2023-08-30T07:34:18;16.00;99.90
2633;DHT22;1326;48.692;16.870;2023-08-30T07:36:45;16.00;99.90
2633;DHT22;1326;48.692;16.870;2023-08-30T07:39:13;16.00;99.90
2633;DHT22;1326;48.692;16.870;2023-08-30T07:41:41;16.00;99.90
2633;DHT22;1326;48.692;16.870;2023-08-30T07:44:08;16.00;99.90
2633;DHT22;1326;48.692;16.870;2023-08-30T07:46:36;16.10;99.90
2633;DHT22;1326;48.692;16.870;2023-08-30T07:49:04;16.10;99.90
2633;DHT22;1326;48.692;16.870;2023-08-30T07:51:31;16.10;99.90
2633;DHT22;1326;48.692;16.870;2023-08-30T07:53:59;16.20;99.90
2633;DHT22;1326;48.692;16.870;2023-08-30T07:56:26;16.40;99.90
2633;DHT22;1326;48.692;16.870;2023-08-30T07:58:56;16.40;99.90
2633;DHT22;1326;48.692;16.870;2023-08-30T08:01:24;16.40;99.90
2633;DHT22;1326;48.692;16.870;2023-08-30T08:03:52;16.50;99.90
2633;DHT22;1326;48.692;16.870;2023-08-30T08:06:19;16.50;99.90
2633;DHT22;1326;48.692;16.870;2023-08-30T08:08:47;16.60;99.90
2633;DHT22;1326;48.692;16.870;2023-08-30T08:11:14;16.60;99.90
2633;DHT22;1326;48.692;16.870;2023-08-30T08:13:42;16.60;99.90
2633;DHT22;1326;48.692;16.870;2023-08-30T08:16:09;16.60;99.90
2633;DHT22;1326;48.692;16.870;2023-08-30T08:18:37;16.60;99.90
2633;DHT22;1326;48.692;16.870;2023-08-30T08:21:04;16.70;99.90
2633;DHT22;1326;48.692;16.870;2023-08-30T08:23:32;16.70;99.90
2633;DHT22;1326;48.692;16.870;2023-08-30T08:26:00;16.70;99.90
2633;DHT22;1326;48.692;16.870;2023-08-30T08:28:29;16.70;99.90
2633;DHT22;1326;48.692;16.870;2023-08-30T08:30:56;16.80;99.90
2633;DHT22;1326;48.692;16.870;2023-08-30T08:33:24;16.90;99.90
2633;DHT22;1326;48.692;16.870;2023-08-30T08:35:52;16.90;99.90
2633;DHT22;1326;48.692;16.870;2023-08-30T08:38:19;17.10;99.90
2633;DHT22;1326;48.692;16.870;2023-08-30T08:40:47;17.10;99.90
2633;DHT22;1326;48.692;16.870;2023-08-30T08:43:18;17.20;99.90
2633;DHT22;1326;48.692;16.870;2023-08-30T08:45:46;17.30;99.90
2633;DHT22;1326;48.692;16.870;2023-08-30T08:48:15;17.40;99.90
2633;DHT22;1326;48.692;16.870;2023-08-30T08:50:43;17.40;99.90
2633;DHT22;1326;48.692;16.870;2023-08-30T08:53:13;17.40;99.90
2633;DHT22;1326;48.692;16.870;2023-08-30T08:55:41;17.40;99.90
2633;DHT22;1326;48.692;16.870;2023-08-30T08:58:11;17.50;99.90
2633;DHT22;1326;48.692;16.870;2023-08-30T09:00:39;17.40;99.90
2633;DHT22;1326;48.692;16.870;2023-08-30T09:03:08;17.50;99.90
2633;DHT22;1326;48.692;16.870;2023-08-30T09:05:37;17.50;99.90
2633;DHT22;1326;48.692;16.870;2023-08-30T09:08:06;17.40;99.90
2633;DHT22;1326;48.692;16.870;2023-08-30T09:10:34;17.30;99.90
2633;DHT22;1326;48.692;16.870;2023-08-30T09:13:03;17.20;99.90
2633;DHT22;1326;48.692;16.870;2023-08-30T09:15:34;17.20;99.90
2633;DHT22;1326;48.692;16.870;2023-08-30T09:18:03;17.20;99.90
2633;DHT22;1326;48.692;16.870;2023-08-30T09:20:31;17.20;99.90
2633;DHT22;1326;48.692;16.870;2023-08-30T09:22:59;17.20;99.90
2633;DHT22;1326;48.692;16.870;2023-08-30T09:25:27;17.30;99.90
2633;DHT22;1326;48.692;16.870;2023-08-30T09:28:01;17.30;99.90
2633;DHT22;1326;48.692;16.870;2023-08-30T09:30:28;17.40;99.90
2633;DHT22;1326;48.692;16.870;2023-08-30T09:33:01;17.30;99.90
2633;DHT22;1326;48.692;16.870;2023-08-30T09:35:29;17.30;99.90
2633;DHT22;1326;48.692;16.870;2023-08-30T09:37:57;17.30;99.90
2633;DHT22;1326;48.692;16.870;2023-08-30T09:40:24;17.30;99.90
2633;DHT22;1326;48.692;16.870;2023-08-30T09:42:52;17.30;99.90
2633;DHT22;1326;48.692;16.870;2023-08-30T09:45:24;17.40;99.90
2633;DHT22;1326;48.692;16.870;2023-08-30T09:47:52;17.40;99.90
2633;DHT22;1326;48.692;16.870;2023-08-30T09:50:21;17.50;99.90
2633;DHT22;1326;48.692;16.870;2023-08-30T09:52:50;17.50;99.90
2633;DHT22;1326;48.692;16.870;2023-08-30T09:55:19;17.40;99.90
2633;DHT22;1326;48.692;16.870;2023-08-30T09:57:49;17.40;99.90
2633;DHT22;1326;48.692;16.870;2023-08-30T10:00:17;17.30;99.90
2633;DHT22;1326;48.692;16.870;2023-08-30T10:02:45;17.40;99.90
2633;DHT22;1326;48.692;16.870;2023-08-30T10:05:14;17.40;99.90
2633;DHT22;1326;48.692;16.870;2023-08-30T10:07:44;17.40;99.90
2633;DHT22;1326;48.692;16.870;2023-08-30T10:10:12;17.40;99.90
2633;DHT22;1326;48.692;16.870;2023-08-30T10:15:46;17.30;99.90
2633;DHT22;1326;48.692;16.870;2023-08-30T10:18:16;17.30;99.90
2633;DHT22;1326;48.692;16.870;2023-08-30T10:20:45;17.40;99.90
2633;DHT22;1326;48.692;16.870;2023-08-30T10:23:15;17.40;99.90
2633;DHT22;1326;48.692;16.870;2023-08-30T10:25:44;17.40;99.90
2633;DHT22;1326;48.692;16.870;2023-08-30T10:28:13;17.50;99.90
2633;DHT22;1326;48.692;16.870;2023-08-30T10:30:42;17.50;99.90
2633;DHT22;1326;48.692;16.870;2023-08-30T10:33:14;17.50;99.90
2633;DHT22;1326;48.692;16.870;2023-08-30T10:35:48;17.60;99.90
2633;DHT22;1326;48.692;16.870;2023-08-30T10:38:28;17.70;99.90
2633;DHT22;1326;48.692;16.870;2023-08-30T10:40:55;17.80;99.90
2633;DHT22;1326;48.692;16.870;2023-08-30T10:43:34;17.80;99.90
2633;DHT22;1326;48.692;16.870;2023-08-30T10:46:02;17.90;99.90
2633;DHT22;1326;48.692;16.870;2023-08-30T10:48:38;18.00;99.90
2633;DHT22;1326;48.692;16.870;2023-08-30T10:51:20;18.10;99.90
2633;DHT22;1326;48.692;16.870;2023-08-30T10:53:58;18.00;99.90
2633;DHT22;1326;48.692;16.870;2023-08-30T10:56:29;18.10;99.90
2633;DHT22;1326;48.692;16.870;2023-08-30T10:58:57;18.10;99.90
2633;DHT22;1326;48.692;16.870;2023-08-30T11:01:25;18.10;99.90
2633;DHT22;1326;48.692;16.870;2023-08-30T11:03:54;18.30;99.90
2633;DHT22;1326;48.692;16.870;2023-08-30T11:06:23;18.40;99.90
2633;DHT22;1326;48.692;16.870;2023-08-30T11:08:50;18.30;99.90
2633;DHT22;1326;48.692;16.870;2023-08-30T11:11:18;18.30;99.90
2633;DHT22;1326;48.692;16.870;2023-08-30T11:13:46;18.30;99.90
2633;DHT22;1326;48.692;16.870;2023-08-30T11:16:20;18.20;99.90
2633;DHT22;1326;48.692;16.870;2023-08-30T11:18:44;18.10;99.90
2633;DHT22;1326;48.692;16.870;2023-08-30T11:21:12;18.10;99.90
2633;DHT22;1326;48.692;16.870;2023-08-30T11:23:40;18.10;99.90
2633;DHT22;1326;48.692;16.870;2023-08-30T11:26:07;18.20;99.90
2633;DHT22;1326;48.692;16.870;2023-08-30T11:28:36;18.10;99.90
2633;DHT22;1326;48.692;16.870;2023-08-30T11:31:05;18.10;99.90
2633;DHT22;1326;48.692;16.870;2023-08-30T11:33:33;18.10;99.90
2633;DHT22;1326;48.692;16.870;2023-08-30T11:36:00;18.20;99.90
2633;DHT22;1326;48.692;16.870;2023-08-30T11:38:28;18.20;99.90
2633;DHT22;1326;48.692;16.870;2023-08-30T11:40:55;18.20;99.90
2633;DHT22;1326;48.692;16.870;2023-08-30T11:43:24;18.30;99.90
2633;DHT22;1326;48.692;16.870;2023-08-30T11:45:55;18.30;99.90
2633;DHT22;1326;48.692;16.870;2023-08-30T11:48:22;18.30;99.90
2633;DHT22;1326;48.692;16.870;2023-08-30T11:50:50;18.30;99.90
2633;DHT22;1326;48.692;16.870;2023-08-30T11:53:18;18.30;99.90
2633;DHT22;1326;48.692;16.870;2023-08-30T11:55:46;18.30;99.90
2633;DHT22;1326;48.692;16.870;2023-08-30T11:58:13;18.20;99.90
2633;DHT22;1326;48.692;16.870;2023-08-30T12:00:41;18.30;99.90
2633;DHT22;1326;48.692;16.870;2023-08-30T12:03:09;18.20;99.90
2633;DHT22;1326;48.692;16.870;2023-08-30T12:05:49;18.30;99.90
2633;DHT22;1326;48.692;16.870;2023-08-30T12:08:21;18.30;99.90
2633;DHT22;1326;48.692;16.870;2023-08-30T12:10:50;18.40;99.90
2633;DHT22;1326;48.692;16.870;2023-08-30T12:13:25;18.40;99.90
2633;DHT22;1326;48.692;16.870;2023-08-30T12:15:57;18.40;99.90
2633;DHT22;1326;48.692;16.870;2023-08-30T12:18:26;18.40;99.90
2633;DHT22;1326;48.692;16.870;2023-08-30T12:20:56;18.30;99.90
2633;DHT22;1326;48.692;16.870;2023-08-30T12:23:26;18.30;99.90
2633;DHT22;1326;48.692;16.870;2023-08-30T12:26:11;18.30;99.90
2633;DHT22;1326;48.692;16.870;2023-08-30T12:28:41;18.30;99.90
2633;DHT22;1326;48.692;16.870;2023-08-30T12:31:11;18.30;99.90
2633;DHT22;1326;48.692;16.870;2023-08-30T12:33:38;18.30;99.90
2633;DHT22;1326;48.692;16.870;2023-08-30T12:36:07;18.40;99.90
2633;DHT22;1326;48.692;16.870;2023-08-30T12:38:35;18.50;99.90
2633;DHT22;1326;48.692;16.870;2023-08-30T12:41:02;18.60;99.90
2633;DHT22;1326;48.692;16.870;2023-08-30T12:43:30;18.50;99.90
2633;DHT22;1326;48.692;16.870;2023-08-30T12:45:57;18.60;99.90
2633;DHT22;1326;48.692;16.870;2023-08-30T12:48:25;18.60;99.90
2633;DHT22;1326;48.692;16.870;2023-08-30T12:50:52;18.70;99.90
2633;DHT22;1326;48.692;16.870;2023-08-30T12:53:20;18.70;99.90
2633;DHT22;1326;48.692;16.870;2023-08-30T12:55:47;18.80;99.90
2633;DHT22;1326;48.692;16.870;2023-08-30T12:58:15;18.80;99.90
2633;DHT22;1326;48.692;16.870;2023-08-30T13:00:42;18.90;99.90
2633;DHT22;1326;48.692;16.870;2023-08-30T13:03:10;19.10;99.90
2633;DHT22;1326;48.692;16.870;2023-08-30T13:05:37;19.10;99.90
2633;DHT22;1326;48.692;16.870;2023-08-30T13:08:05;19.20;99.90
2633;DHT22;1326;48.692;16.870;2023-08-30T13:10:33;19.30;99.90
2633;DHT22;1326;48.692;16.870;2023-08-30T13:13:01;19.30;99.90
2633;DHT22;1326;48.692;16.870;2023-08-30T13:15:29;19.40;99.90
2633;DHT22;1326;48.692;16.870;2023-08-30T13:17:57;19.40;99.90
2633;DHT22;1326;48.692;16.870;2023-08-30T13:20:24;19.50;99.90
2633;DHT22;1326;48.692;16.870;2023-08-30T13:22:52;19.60;99.90
2633;DHT22;1326;48.692;16.870;2023-08-30T13:25:20;19.60;99.90
2633;DHT22;1326;48.692;16.870;2023-08-30T13:27:47;19.60;99.90
2633;DHT22;1326;48.692;16.870;2023-08-30T13:30:15;19.50;99.90
2633;DHT22;1326;48.692;16.870;2023-08-30T13:32:42;19.60;99.90
2633;DHT22;1326;48.692;16.870;2023-08-30T13:35:10;19.50;99.90
2633;DHT22;1326;48.692;16.870;2023-08-30T13:37:37;19.50;99.90
2633;DHT22;1326;48.692;16.870;2023-08-30T13:40:06;19.50;99.90
2633;DHT22;1326;48.692;16.870;2023-08-30T13:42:34;19.60;99.90
2633;DHT22;1326;48.692;16.870;2023-08-30T13:45:02;19.80;99.90
2633;DHT22;1326;48.692;16.870;2023-08-30T13:47:30;20.00;99.90
2633;DHT22;1326;48.692;16.870;2023-08-30T13:49:58;20.00;99.90
2633;DHT22;1326;48.692;16.870;2023-08-30T13:52:26;20.00;99.90
2633;DHT22;1326;48.692;16.870;2023-08-30T13:54:55;20.00;99.90
2633;DHT22;1326;48.692;16.870;2023-08-30T13:57:23;20.10;99.90
2633;DHT22;1326;48.692;16.870;2023-08-30T13:59:50;20.00;99.90
2633;DHT22;1326;48.692;16.870;2023-08-30T14:02:18;19.90;99.90
2633;DHT22;1326;48.692;16.870;2023-08-30T14:04:45;19.80;99.90
2633;DHT22;1326;48.692;16.870;2023-08-30T14:07:13;19.70;99.90
2633;DHT22;1326;48.692;16.870;2023-08-30T14:09:41;19.80;99.90
2633;DHT22;1326;48.692;16.870;2023-08-30T14:12:08;19.70;99.90
2633;DHT22;1326;48.692;16.870;2023-08-30T14:14:36;19.60;99.90
2633;DHT22;1326;48.692;16.870;2023-08-30T14:17:04;19.60;99.90
2633;DHT22;1326;48.692;16.870;2023-08-30T14:19:36;19.60;99.90
2633;DHT22;1326;48.692;16.870;2023-08-30T14:22:03;19.60;99.90
2633;DHT22;1326;48.692;16.870;2023-08-30T14:27:02;19.50;99.90
2633;DHT22;1326;48.692;16.870;2023-08-30T14:29:30;19.50;99.90
2633;DHT22;1326;48.692;16.870;2023-08-30T14:31:58;19.60;99.90
2633;DHT22;1326;48.692;16.870;2023-08-30T14:34:26;19.60;99.90
2633;DHT22;1326;48.692;16.870;2023-08-30T14:36:54;19.60;99.90
2633;DHT22;1326;48.692;16.870;2023-08-30T14:39:22;19.60;99.90
2633;DHT22;1326;48.692;16.870;2023-08-30T14:41:50;19.60;99.90
2633;DHT22;1326;48.692;16.870;2023-08-30T14:44:17;19.60;99.90
2633;DHT22;1326;48.692;16.870;2023-08-30T14:46:45;19.50;99.90
2633;DHT22;1326;48.692;16.870;2023-08-30T14:49:12;19.40;99.90
2633;DHT22;1326;48.692;16.870;2023-08-30T14:51:40;19.40;99.90
2633;DHT22;1326;48.692;16.870;2023-08-30T14:54:27;19.30;99.90
2633;DHT22;1326;48.692;16.870;2023-08-30T14:56:54;19.30;99.90
2633;DHT22;1326;48.692;16.870;2023-08-30T14:59:22;19.20;99.90
2633;DHT22;1326;48.692;16.870;2023-08-30T15:01:49;19.20;99.90
2633;DHT22;1326;48.692;16.870;2023-08-30T15:04:17;19.20;99.90
2633;DHT22;1326;48.692;16.870;2023-08-30T15:06:44;19.20;99.90
2633;DHT22;1326;48.692;16.870;2023-08-30T15:09:12;19.20;99.90
2633;DHT22;1326;48.692;16.870;2023-08-30T15:11:41;19.20;99.90
2633;DHT22;1326;48.692;16.870;2023-08-30T15:14:09;19.20;99.90
2633;DHT22;1326;48.692;16.870;2023-08-30T15:16:37;19.20;99.90
2633;DHT22;1326;48.692;16.870;2023-08-30T15:19:05;19.20;99.90
2633;DHT22;1326;48.692;16.870;2023-08-30T15:21:32;19.20;99.90
2633;DHT22;1326;48.692;16.870;2023-08-30T15:24:00;19.30;99.90
2633;DHT22;1326;48.692;16.870;2023-08-30T15:26:27;19.20;99.90
2633;DHT22;1326;48.692;16.870;2023-08-30T15:28:55;19.20;99.90
2633;DHT22;1326;48.692;16.870;2023-08-30T15:31:22;19.20;99.90
2633;DHT22;1326;48.692;16.870;2023-08-30T15:33:50;19.20;99.90
2633;DHT22;1326;48.692;16.870;2023-08-30T15:36:17;19.10;99.90
2633;DHT22;1326;48.692;16.870;2023-08-30T15:38:45;19.10;99.90
2633;DHT22;1326;48.692;16.870;2023-08-30T15:41:13;19.10;99.90
2633;DHT22;1326;48.692;16.870;2023-08-30T15:43:41;19.00;99.90
2633;DHT22;1326;48.692;16.870;2023-08-30T15:46:10;19.00;99.90
2633;DHT22;1326;48.692;16.870;2023-08-30T15:48:39;19.00;99.90
2633;DHT22;1326;48.692;16.870;2023-08-30T15:51:07;19.00;99.90
2633;DHT22;1326;48.692;16.870;2023-08-30T15:53:35;19.00;99.90
2633;DHT22;1326;48.692;16.870;2023-08-30T15:56:03;19.10;99.90
2633;DHT22;1326;48.692;16.870;2023-08-30T15:58:31;19.10;99.90
2633;DHT22;1326;48.692;16.870;2023-08-30T16:01:07;19.10;99.90